Time;durP1;ratioP1;P1;durP2;ratioP2;P2;SDS_P1;SDS_P2;PMS_P1;PMS_P2;Temp;Humidity;BMP_temperature;BMP_pressure;BME280_temperature;BME280_humidity;BME280_pressure;Samples;Min_cycle;Max_cycle;Signal;HPM_P1;HPM_P2
2021/09/11 00:00:09;;;;;;;1.50;0.90;;;19.50;98.20;;;;;;4971967;28;20492;-80
2021/09/11 00:02:37;;;;;;;1.53;0.90;;;19.50;98.20;;;;;;4963053;28;20482;-79
2021/09/11 00:05:04;;;;;;;1.53;0.90;;;19.50;98.20;;;;;;4974712;28;20477;-79
2021/09/11 00:07:32;;;;;;;1.50;0.90;;;19.50;98.20;;;;;;4974031;28;20481;-79
2021/09/11 00:09:58;;;;;;;1.50;0.90;;;19.50;98.20;;;;;;4974252;28;20512;-76
2021/09/11 00:12:25;;;;;;;1.53;0.90;;;19.50;98.20;;;;;;4977463;28;20750;-77
2021/09/11 00:14:52;;;;;;;1.53;0.90;;;19.40;98.20;;;;;;4970801;28;20470;-77
2021/09/11 00:17:19;;;;;;;1.53;1.00;;;19.40;98.20;;;;;;4963722;28;20926;-79
2021/09/11 00:19:47;;;;;;;1.50;0.90;;;19.40;98.20;;;;;;4974533;28;20477;-79
2021/09/11 00:22:14;;;;;;;1.50;0.90;;;19.30;98.20;;;;;;4959247;28;20562;-79
2021/09/11 00:24:40;;;;;;;1.50;0.90;;;19.30;98.20;;;;;;4972018;28;20474;-79
2021/09/11 00:27:07;;;;;;;1.50;0.90;;;19.30;98.20;;;;;;4972093;28;20477;-77
2021/09/11 00:29:37;;;;;;;1.53;0.97;;;19.30;98.20;;;;;;4977529;28;20492;-78
2021/09/11 00:32:04;;;;;;;1.57;0.90;;;19.30;98.20;;;;;;4971076;28;20472;-79
2021/09/11 00:34:31;;;;;;;1.57;1.00;;;19.30;98.20;;;;;;4976495;28;20470;-78
2021/09/11 00:36:59;;;;;;;1.53;0.90;;;19.20;98.20;;;;;;4971818;28;20480;-78
2021/09/11 00:39:26;;;;;;;1.50;1.00;;;19.30;98.20;;;;;;4976004;28;20872;-79
2021/09/11 00:41:53;;;;;;;1.50;0.90;;;19.20;98.20;;;;;;4958476;28;20481;-79
2021/09/11 00:44:20;;;;;;;1.50;1.00;;;19.10;98.20;;;;;;4972318;28;21031;-79
2021/09/11 00:46:47;;;;;;;1.57;0.90;;;19.10;98.20;;;;;;4956805;28;20480;-79
2021/09/11 00:49:14;;;;;;;1.57;1.00;;;19.10;98.20;;;;;;4977679;28;20486;-79
2021/09/11 00:51:41;;;;;;;1.53;1.00;;;19.10;98.20;;;;;;4964258;28;20487;-79
2021/09/11 00:54:11;;;;;;;1.57;0.93;;;19.10;98.20;;;;;;4976417;28;20466;-79
2021/09/11 00:56:38;;;;;;;1.50;0.90;;;19.10;98.20;;;;;;4969159;28;20503;-80
2021/09/11 00:59:05;;;;;;;1.53;1.00;;;19.10;98.20;;;;;;4976461;28;20490;-80
2021/09/11 01:01:32;;;;;;;1.50;0.90;;;19.20;98.20;;;;;;4961724;28;20911;-77
2021/09/11 01:03:59;;;;;;;1.50;0.90;;;19.20;98.20;;;;;;4972759;28;20465;-80
2021/09/11 01:06:26;;;;;;;1.53;0.90;;;19.20;98.20;;;;;;4967656;28;21004;-78
2021/09/11 01:08:54;;;;;;;1.53;0.90;;;19.20;98.20;;;;;;4978529;28;20926;-79
2021/09/11 01:11:22;;;;;;;1.53;0.90;;;19.20;98.20;;;;;;4966300;28;20500;-79
2021/09/11 01:13:49;;;;;;;1.50;0.90;;;19.20;98.20;;;;;;4979214;28;20454;-78
2021/09/11 01:16:16;;;;;;;1.50;0.90;;;19.20;98.20;;;;;;4967999;28;20477;-80
2021/09/11 01:18:42;;;;;;;1.53;0.90;;;19.20;98.20;;;;;;4976840;28;20482;-79
2021/09/11 01:21:09;;;;;;;1.50;0.90;;;19.20;98.20;;;;;;4971359;28;20567;-78
2021/09/11 01:23:41;;;;;;;1.50;0.97;;;19.30;98.20;;;;;;4990657;28;20469;-79
2021/09/11 01:26:08;;;;;;;1.53;1.00;;;19.30;98.20;;;;;;4968360;28;20486;-79
2021/09/11 01:28:35;;;;;;;1.50;0.90;;;19.30;98.20;;;;;;4980297;28;20482;-79
2021/09/11 01:31:02;;;;;;;1.50;0.90;;;19.30;98.20;;;;;;4967864;28;20461;-79
2021/09/11 01:33:28;;;;;;;1.50;0.90;;;19.30;98.20;;;;;;4974578;28;20462;-80
2021/09/11 01:35:55;;;;;;;1.57;1.00;;;19.30;98.20;;;;;;4963881;28;20476;-78
2021/09/11 01:38:22;;;;;;;1.60;1.00;;;19.30;98.20;;;;;;4973682;28;20548;-79
2021/09/11 01:40:50;;;;;;;1.53;1.00;;;19.30;98.20;;;;;;4966360;28;20493;-79
2021/09/11 01:43:27;;;;;;;1.50;0.90;;;19.40;98.20;;;;;;4977948;28;20462;-79
2021/09/11 01:45:54;;;;;;;1.50;0.90;;;19.40;98.20;;;;;;4961237;28;20492;-79
2021/09/11 01:48:20;;;;;;;1.50;0.90;;;19.40;98.20;;;;;;4968135;28;21017;-77
2021/09/11 01:50:47;;;;;;;1.53;0.90;;;19.40;98.20;;;;;;4966892;28;20458;-77
2021/09/11 01:53:14;;;;;;;1.50;0.90;;;19.50;98.20;;;;;;4957573;28;20473;-77
2021/09/11 01:55:40;;;;;;;1.53;0.90;;;19.50;98.20;;;;;;4973378;28;20805;-77
2021/09/11 01:58:09;;;;;;;1.57;0.90;;;19.50;98.20;;;;;;4976867;28;20498;-77
2021/09/11 02:00:35;;;;;;;1.53;0.90;;;19.50;98.20;;;;;;4974850;28;20473;-77
2021/09/11 02:03:02;;;;;;;1.57;0.90;;;19.60;98.20;;;;;;4967952;28;20489;-77
2021/09/11 02:05:29;;;;;;;1.53;0.90;;;19.60;98.20;;;;;;4972420;28;20502;-79
2021/09/11 02:07:56;;;;;;;1.50;0.90;;;19.60;98.20;;;;;;4981759;28;20826;-78
2021/09/11 02:10:22;;;;;;;1.57;0.97;;;19.60;98.20;;;;;;4974990;28;20622;-77
2021/09/11 02:12:49;;;;;;;1.60;1.00;;;19.60;98.20;;;;;;4981259;28;20484;-78
2021/09/11 02:15:17;;;;;;;1.53;0.90;;;19.50;98.20;;;;;;4978038;28;20486;-78
2021/09/11 02:17:45;;;;;;;1.50;0.90;;;19.50;98.20;;;;;;4960855;28;20486;-77
2021/09/11 02:20:12;;;;;;;1.53;0.90;;;19.50;98.20;;;;;;4975517;28;20493;-78
2021/09/11 02:22:40;;;;;;;1.53;1.00;;;19.40;98.20;;;;;;4964207;28;20754;-77
2021/09/11 02:25:08;;;;;;;1.50;0.90;;;19.40;98.20;;;;;;4970770;28;20962;-78
2021/09/11 02:27:35;;;;;;;1.57;0.93;;;19.40;98.20;;;;;;4975358;28;20477;-78
2021/09/11 02:30:02;;;;;;;1.50;1.00;;;19.40;98.20;;;;;;4978719;28;20493;-77
2021/09/11 02:32:30;;;;;;;1.57;1.00;;;19.40;98.20;;;;;;4979225;28;20489;-77
2021/09/11 02:34:57;;;;;;;1.53;1.00;;;19.40;98.20;;;;;;4978196;28;20458;-78
2021/09/11 02:37:24;;;;;;;1.50;0.90;;;19.40;98.20;;;;;;4967513;28;20855;-78
2021/09/11 02:39:50;;;;;;;1.50;1.00;;;19.40;98.20;;;;;;4978262;28;20489;-78
2021/09/11 02:42:17;;;;;;;1.53;0.90;;;19.40;98.20;;;;;;4971213;28;20492;-78
2021/09/11 02:44:44;;;;;;;1.53;1.00;;;19.40;98.20;;;;;;4972219;28;20506;-78
2021/09/11 02:47:11;;;;;;;1.53;0.90;;;19.40;98.20;;;;;;4963926;28;20486;-78
2021/09/11 02:49:39;;;;;;;1.50;0.97;;;19.40;98.20;;;;;;4969763;28;20485;-78
2021/09/11 02:52:06;;;;;;;1.50;1.00;;;19.40;98.20;;;;;;4964028;28;20485;-77
2021/09/11 02:54:32;;;;;;;1.50;1.00;;;19.40;98.20;;;;;;4976302;28;20474;-77
2021/09/11 02:56:59;;;;;;;1.60;1.00;;;19.40;98.20;;;;;;4965278;28;20533;-78
2021/09/11 02:59:26;;;;;;;1.50;0.90;;;19.40;98.20;;;;;;4973396;28;20490;-77
2021/09/11 03:01:53;;;;;;;1.50;0.90;;;19.40;98.20;;;;;;4963866;28;21013;-78
2021/09/11 03:04:19;;;;;;;1.53;0.90;;;19.40;98.20;;;;;;4975639;28;20473;-78
2021/09/11 03:06:47;;;;;;;1.50;1.00;;;19.40;98.20;;;;;;4970432;28;20845;-78
2021/09/11 03:09:14;;;;;;;1.60;0.90;;;19.40;98.20;;;;;;4978941;28;20931;-77
2021/09/11 03:11:41;;;;;;;1.50;0.93;;;19.40;98.20;;;;;;4970805;28;20481;-77
2021/09/11 03:14:08;;;;;;;1.50;0.90;;;19.40;98.20;;;;;;4978211;28;20470;-77
2021/09/11 03:16:34;;;;;;;1.57;1.00;;;19.40;98.20;;;;;;4960655;28;20482;-78
2021/09/11 03:19:01;;;;;;;1.60;1.00;;;19.30;98.20;;;;;;4973968;28;20490;-78
2021/09/11 03:21:28;;;;;;;1.57;1.00;;;19.40;98.20;;;;;;4951049;28;20843;-77
2021/09/11 03:23:56;;;;;;;1.50;1.00;;;19.40;98.20;;;;;;4971367;28;20470;-78
2021/09/11 03:26:23;;;;;;;1.50;0.93;;;19.40;98.20;;;;;;4964643;28;21003;-78
2021/09/11 03:28:49;;;;;;;1.50;0.90;;;19.40;98.20;;;;;;4986073;28;20489;-80
2021/09/11 03:31:16;;;;;;;1.53;0.97;;;19.30;98.20;;;;;;4965389;28;20492;-78
2021/09/11 03:33:43;;;;;;;1.57;1.00;;;19.30;98.20;;;;;;4969672;28;20466;-78
2021/09/11 03:36:09;;;;;;;1.53;0.90;;;19.30;98.20;;;;;;4973693;28;20481;-77
2021/09/11 03:38:36;;;;;;;1.53;0.93;;;19.30;98.20;;;;;;4989668;28;20481;-77
2021/09/11 03:41:04;;;;;;;1.53;0.90;;;19.30;98.20;;;;;;4967061;28;20467;-76
2021/09/11 03:43:31;;;;;;;1.57;0.90;;;19.30;98.20;;;;;;4978242;28;21158;-76
2021/09/11 03:45:58;;;;;;;1.50;0.90;;;19.30;98.20;;;;;;4966240;28;20458;-78
2021/09/11 03:48:24;;;;;;;1.50;0.93;;;19.20;98.20;;;;;;4987917;28;20488;-75
2021/09/11 03:50:51;;;;;;;1.57;1.00;;;19.20;98.20;;;;;;4964435;28;20840;-77
2021/09/11 03:53:18;;;;;;;1.57;0.90;;;19.20;98.20;;;;;;4969423;28;20466;-77
2021/09/11 03:55:45;;;;;;;1.53;0.93;;;19.20;98.20;;;;;;4975250;28;20548;-76
2021/09/11 03:58:14;;;;;;;1.50;0.90;;;19.20;98.20;;;;;;4971507;28;21040;-75
2021/09/11 04:00:40;;;;;;;1.50;1.00;;;19.20;98.20;;;;;;4973577;28;20492;-76
2021/09/11 04:03:07;;;;;;;1.60;1.00;;;19.20;98.20;;;;;;4974559;28;20494;-76
2021/09/11 04:05:34;;;;;;;1.60;1.00;;;19.10;98.20;;;;;;4972348;28;20467;-77
2021/09/11 04:08:01;;;;;;;1.53;0.93;;;19.10;98.20;;;;;;4967816;28;20482;-78
2021/09/11 04:10:27;;;;;;;1.50;0.90;;;19.10;98.20;;;;;;4973279;28;20462;-78
2021/09/11 04:12:54;;;;;;;1.57;1.00;;;19.10;98.20;;;;;;4977078;28;21015;-77
2021/09/11 04:15:22;;;;;;;1.53;0.90;;;19.10;98.20;;;;;;4972297;28;20466;-78
2021/09/11 04:17:50;;;;;;;1.53;1.00;;;19.10;98.20;;;;;;4965604;28;20486;-77
2021/09/11 04:20:17;;;;;;;1.57;0.97;;;19.10;98.20;;;;;;4968640;28;20470;-78
2021/09/11 04:22:44;;;;;;;1.50;0.90;;;19.10;98.20;;;;;;4974559;28;20476;-78
2021/09/11 04:25:11;;;;;;;1.53;1.00;;;19.00;98.20;;;;;;4969257;28;20612;-79
2021/09/11 04:27:37;;;;;;;1.50;0.90;;;19.10;98.20;;;;;;4975715;28;20860;-77
2021/09/11 04:30:05;;;;;;;1.57;0.90;;;19.10;98.20;;;;;;4971386;28;20489;-77
2021/09/11 04:32:33;;;;;;;1.50;0.90;;;19.00;98.20;;;;;;4965012;28;20538;-77
2021/09/11 04:35:01;;;;;;;1.57;1.00;;;19.00;98.20;;;;;;4971517;28;20458;-77
2021/09/11 04:37:28;;;;;;;1.53;0.97;;;19.00;98.20;;;;;;4974772;28;21216;-77
2021/09/11 04:39:55;;;;;;;1.60;1.00;;;19.00;98.20;;;;;;4972983;28;20490;-78
2021/09/11 04:42:22;;;;;;;1.57;1.00;;;19.00;98.20;;;;;;4957442;28;20475;-76
2021/09/11 04:44:49;;;;;;;1.57;0.90;;;19.00;98.20;;;;;;4972901;28;21157;-78
2021/09/11 04:47:15;;;;;;;1.57;1.00;;;19.00;98.20;;;;;;4965265;28;21005;-78
2021/09/11 04:49:43;;;;;;;1.53;0.90;;;19.00;98.20;;;;;;4975552;28;20488;-77
2021/09/11 04:52:10;;;;;;;1.57;1.00;;;19.00;98.20;;;;;;4976439;28;20799;-76
2021/09/11 04:54:37;;;;;;;1.50;1.00;;;19.00;98.20;;;;;;4977207;28;20473;-78
2021/09/11 04:57:04;;;;;;;1.60;1.10;;;19.00;98.20;;;;;;4970737;28;20500;-78
2021/09/11 04:59:31;;;;;;;1.53;1.00;;;19.00;98.20;;;;;;4978313;28;20500;-77
2021/09/11 05:01:58;;;;;;;1.60;1.20;;;19.00;98.20;;;;;;4974273;28;20481;-77
2021/09/11 05:04:25;;;;;;;1.50;0.90;;;18.90;98.20;;;;;;4980064;28;20470;-77
2021/09/11 05:06:53;;;;;;;1.60;1.00;;;18.90;98.20;;;;;;4970096;28;20489;-79
2021/09/11 05:09:20;;;;;;;1.53;1.00;;;18.90;98.20;;;;;;4981116;28;20485;-77
2021/09/11 05:11:47;;;;;;;1.53;1.00;;;18.90;98.20;;;;;;4972411;28;20494;-78
2021/09/11 05:14:14;;;;;;;1.57;1.00;;;18.90;98.20;;;;;;4982014;28;21023;-77
2021/09/11 05:16:41;;;;;;;1.53;0.97;;;18.80;98.20;;;;;;4964578;28;20485;-77
2021/09/11 05:19:10;;;;;;;1.53;1.00;;;18.80;98.20;;;;;;4973053;28;20989;-78
2021/09/11 05:21:37;;;;;;;1.50;0.90;;;18.80;98.20;;;;;;4966916;28;21098;-77
2021/09/11 05:24:06;;;;;;;1.53;1.00;;;18.80;98.20;;;;;;4976093;28;20493;-78
2021/09/11 05:26:32;;;;;;;1.50;1.00;;;18.80;98.20;;;;;;4968182;28;20481;-79
2021/09/11 05:28:59;;;;;;;1.57;0.90;;;18.80;98.20;;;;;;4982722;28;21032;-77
2021/09/11 05:31:27;;;;;;;1.57;1.00;;;18.80;98.20;;;;;;4968694;28;20996;-79
2021/09/11 05:33:54;;;;;;;1.50;0.90;;;18.70;98.20;;;;;;4985014;28;20616;-77
2021/09/11 05:36:21;;;;;;;1.60;1.00;;;18.70;98.20;;;;;;4960858;28;20881;-78
2021/09/11 05:38:47;;;;;;;1.60;1.10;;;18.70;98.20;;;;;;4973673;28;20497;-77
2021/09/11 05:41:15;;;;;;;1.50;0.90;;;18.70;98.20;;;;;;4962811;28;20830;-78
2021/09/11 05:43:42;;;;;;;1.50;0.93;;;18.70;98.20;;;;;;4973561;28;20462;-78
2021/09/11 05:46:09;;;;;;;1.50;1.00;;;18.70;98.20;;;;;;4962887;28;20953;-77
2021/09/11 05:48:36;;;;;;;1.57;1.00;;;18.70;98.20;;;;;;4971281;28;20504;-78
2021/09/11 05:51:03;;;;;;;1.53;1.00;;;18.70;98.20;;;;;;4959863;28;20469;-78
2021/09/11 05:53:30;;;;;;;1.50;1.00;;;18.70;98.20;;;;;;4970722;28;20477;-77
2021/09/11 05:55:56;;;;;;;1.53;1.00;;;18.70;98.20;;;;;;4956192;28;20459;-78
2021/09/11 05:58:25;;;;;;;1.53;1.00;;;18.70;98.20;;;;;;4969608;28;20499;-77
2021/09/11 06:00:52;;;;;;;1.60;1.00;;;18.70;98.20;;;;;;4963766;28;20508;-77
2021/09/11 06:03:19;;;;;;;1.53;0.90;;;18.70;98.20;;;;;;4986755;28;20546;-79
2021/09/11 06:05:46;;;;;;;1.53;0.90;;;18.70;98.20;;;;;;4967476;28;20457;-77
2021/09/11 06:08:13;;;;;;;1.53;1.00;;;18.70;98.20;;;;;;4986052;28;20498;-79
2021/09/11 06:10:40;;;;;;;1.53;0.90;;;18.70;98.20;;;;;;4973945;28;20557;-78
2021/09/11 06:13:07;;;;;;;1.57;0.90;;;18.70;98.20;;;;;;4981453;28;20492;-80
2021/09/11 06:15:35;;;;;;;1.50;1.00;;;18.80;98.20;;;;;;4977184;28;20454;-80
2021/09/11 06:18:02;;;;;;;1.60;1.10;;;18.80;98.20;;;;;;4966969;28;20986;-78
2021/09/11 06:20:29;;;;;;;1.57;1.00;;;18.80;98.20;;;;;;4970892;28;20474;-80
2021/09/11 06:22:56;;;;;;;1.60;1.00;;;18.90;98.20;;;;;;4980518;28;20488;-78
2021/09/11 06:25:23;;;;;;;1.50;0.90;;;18.90;98.20;;;;;;4969906;28;20458;-77
2021/09/11 06:27:54;;;;;;;1.50;1.00;;;19.00;98.20;;;;;;4960805;28;20508;-77
2021/09/11 06:30:23;;;;;;;1.57;1.00;;;19.00;98.20;;;;;;4973724;28;20489;-78
2021/09/11 06:32:51;;;;;;;1.50;0.90;;;19.10;98.20;;;;;;4958282;28;20942;-78
2021/09/11 06:35:18;;;;;;;1.60;1.00;;;19.10;98.20;;;;;;4970151;28;20470;-77
2021/09/11 06:37:45;;;;;;;1.50;0.90;;;19.20;98.20;;;;;;4962037;28;20494;-77
2021/09/11 06:40:12;;;;;;;1.50;0.97;;;19.20;98.20;;;;;;4972226;28;20490;-78
2021/09/11 06:42:39;;;;;;;1.53;0.90;;;19.20;98.20;;;;;;4961740;28;20569;-78
2021/09/11 06:45:07;;;;;;;1.57;1.00;;;19.20;98.20;;;;;;4972251;28;20508;-78
2021/09/11 06:47:34;;;;;;;1.50;0.90;;;19.30;98.20;;;;;;4962801;28;20509;-79
2021/09/11 06:50:02;;;;;;;1.57;0.90;;;19.30;98.20;;;;;;4976597;28;20474;-79
2021/09/11 06:52:29;;;;;;;1.53;1.00;;;19.30;98.20;;;;;;4960671;28;20482;-78
2021/09/11 06:54:56;;;;;;;1.50;0.93;;;19.40;98.20;;;;;;4974985;28;20462;-80
2021/09/11 06:57:23;;;;;;;1.53;0.90;;;19.40;98.20;;;;;;4972477;28;20487;-80
2021/09/11 06:59:49;;;;;;;1.53;0.90;;;19.50;98.20;;;;;;4977622;28;20856;-79
2021/09/11 07:02:16;;;;;;;1.50;1.00;;;19.50;98.20;;;;;;4963474;28;20505;-80
2021/09/11 07:04:43;;;;;;;1.53;0.90;;;19.60;98.20;;;;;;4973656;28;20557;-80
2021/09/11 07:07:11;;;;;;;1.50;0.97;;;19.60;98.20;;;;;;4974243;28;21018;-80
2021/09/11 07:09:38;;;;;;;1.57;0.90;;;19.60;98.20;;;;;;4975496;28;20500;-78
2021/09/11 07:12:05;;;;;;;1.57;0.90;;;19.60;98.20;;;;;;4972523;28;20481;-77
2021/09/11 07:14:32;;;;;;;1.57;1.00;;;19.60;98.20;;;;;;4971796;28;20480;-78
2021/09/11 07:16:58;;;;;;;1.53;0.90;;;19.70;98.20;;;;;;4955495;28;20512;-78
2021/09/11 07:19:28;;;;;;;1.53;1.00;;;19.90;98.20;;;;;;4969730;28;20486;-78
2021/09/11 07:21:55;;;;;;;1.57;0.90;;;20.10;98.20;;;;;;4968744;28;20513;-78
2021/09/11 07:24:23;;;;;;;1.53;0.90;;;20.30;98.20;;;;;;4972380;28;20485;-78
2021/09/11 07:26:50;;;;;;;1.57;1.00;;;20.50;98.20;;;;;;4958654;28;20903;-78
2021/09/11 07:29:17;;;;;;;1.57;0.90;;;20.80;98.20;;;;;;4971351;28;20474;-78
2021/09/11 07:31:43;;;;;;;1.53;0.90;;;21.00;98.20;;;;;;4959555;28;20670;-78
2021/09/11 07:34:10;;;;;;;1.57;0.90;;;21.30;98.20;;;;;;4975282;28;20469;-78
2021/09/11 07:36:37;;;;;;;1.53;0.90;;;21.60;98.20;;;;;;4963880;28;20477;-78
2021/09/11 07:39:04;;;;;;;1.57;0.90;;;21.80;98.20;;;;;;4976247;28;20852;-78
2021/09/11 07:41:33;;;;;;;1.53;0.90;;;22.00;98.20;;;;;;4963737;28;20532;-78
2021/09/11 07:44:00;;;;;;;1.57;0.93;;;22.00;98.20;;;;;;4978583;28;20473;-81
2021/09/11 07:46:27;;;;;;;1.53;0.90;;;22.00;97.90;;;;;;4963731;28;20491;-78
2021/09/11 07:48:54;;;;;;;1.60;1.00;;;22.00;98.20;;;;;;4976440;28;20490;-78
2021/09/11 07:51:20;;;;;;;1.57;0.90;;;21.90;98.20;;;;;;4962671;28;20485;-77
2021/09/11 07:53:47;;;;;;;1.57;0.90;;;21.80;98.10;;;;;;4979372;28;21121;-78
2021/09/11 07:56:14;;;;;;;1.50;0.90;;;21.80;98.20;;;;;;4960371;28;20477;-80
2021/09/11 07:58:42;;;;;;;1.53;0.90;;;21.80;98.20;;;;;;4977810;28;20993;-80
2021/09/11 08:01:09;;;;;;;1.50;0.90;;;21.70;98.20;;;;;;4963635;28;20485;-79
2021/09/11 08:03:36;;;;;;;1.50;0.90;;;21.70;97.70;;;;;;4980338;28;20498;-77
2021/09/11 08:06:07;;;;;;;1.57;0.93;;;21.70;98.20;;;;;;4943630;28;20517;-77
2021/09/11 08:08:34;;;;;;;1.53;0.90;;;21.60;98.20;;;;;;4966227;28;20568;-79
2021/09/11 08:11:01;;;;;;;1.50;1.00;;;21.70;98.20;;;;;;4965204;28;20457;-78
2021/09/11 08:13:28;;;;;;;1.57;0.90;;;21.90;98.10;;;;;;4982683;28;20504;-79
2021/09/11 08:15:56;;;;;;;1.50;0.90;;;22.00;97.70;;;;;;4955654;28;20474;-78
2021/09/11 08:18:24;;;;;;;1.57;1.00;;;22.10;98.20;;;;;;4982315;28;20533;-78
2021/09/11 08:20:51;;;;;;;1.57;0.93;;;22.20;97.40;;;;;;4959575;28;20485;-79
2021/09/11 08:23:18;;;;;;;1.57;0.90;;;22.40;96.30;;;;;;4986411;28;20847;-79
2021/09/11 08:25:46;;;;;;;1.50;0.90;;;22.50;95.90;;;;;;4965953;28;20536;-77
2021/09/11 08:28:15;;;;;;;1.53;0.90;;;22.60;94.80;;;;;;4959688;28;21064;-80
2021/09/11 08:30:42;;;;;;;1.53;0.90;;;22.70;94.00;;;;;;4977583;28;20958;-80
2021/09/11 08:33:15;;;;;;;1.50;0.90;;;22.70;94.40;;;;;;4985522;28;20493;-79
2021/09/11 08:35:42;;;;;;;1.57;0.90;;;22.80;94.90;;;;;;4967296;28;20477;-79
2021/09/11 08:38:10;;;;;;;1.50;0.90;;;22.90;95.20;;;;;;4976640;28;20484;-80
2021/09/11 08:40:43;;;;;;;1.57;0.90;;;23.00;93.50;;;;;;4971975;28;20525;-79
2021/09/11 08:43:10;;;;;;;1.57;0.90;;;23.00;93.30;;;;;;4973865;28;20975;-79
2021/09/11 08:45:37;;;;;;;1.50;0.90;;;23.00;93.20;;;;;;4965454;28;20496;-79
2021/09/11 08:48:04;;;;;;;1.50;0.90;;;23.10;94.00;;;;;;4973697;28;20488;-78
2021/09/11 08:50:32;;;;;;;1.57;0.90;;;23.00;93.90;;;;;;4965889;28;20553;-79
2021/09/11 08:52:59;;;;;;;1.53;0.90;;;22.90;93.50;;;;;;4967919;28;20962;-79
2021/09/11 08:55:26;;;;;;;1.50;0.90;;;22.80;94.10;;;;;;4968034;28;20464;-79
2021/09/11 08:58:01;;;;;;;1.57;0.90;;;22.80;94.50;;;;;;4977016;28;20512;-80
2021/09/11 09:00:40;;;;;;;1.53;0.90;;;22.80;94.20;;;;;;4960424;28;20697;-78
2021/09/11 09:03:33;;;;;;;1.57;1.00;;;22.80;93.60;;;;;;4971035;28;20496;-81
2021/09/11 09:06:19;;;;;;;1.53;0.90;;;22.80;93.40;;;;;;4960875;28;20526;-80
2021/09/11 09:08:50;;;;;;;1.50;0.90;;;22.90;93.80;;;;;;4980976;28;20546;-78
2021/09/11 09:11:23;;;;;;;1.50;0.90;;;23.00;94.80;;;;;;4954008;28;20482;-78
2021/09/11 09:13:55;;;;;;;1.50;0.90;;;23.00;93.40;;;;;;4964905;28;20465;-80
2021/09/11 09:16:23;;;;;;;1.50;0.90;;;22.90;93.80;;;;;;4959836;28;20556;-81
2021/09/11 09:18:50;;;;;;;1.50;0.90;;;22.90;93.40;;;;;;4979316;28;20962;-80
2021/09/11 09:21:20;;;;;;;1.57;0.90;;;22.90;93.90;;;;;;4958947;28;20775;-79
2021/09/11 09:23:49;;;;;;;1.50;0.90;;;22.90;93.70;;;;;;4963956;28;20653;-80
2021/09/11 09:26:16;;;;;;;1.57;0.90;;;22.90;92.90;;;;;;4959306;28;20485;-80
2021/09/11 09:28:58;;;;;;;1.53;0.90;;;23.00;94.10;;;;;;4979010;28;20496;-79
2021/09/11 09:31:25;;;;;;;1.57;0.90;;;23.20;93.40;;;;;;4950959;28;20482;-77
2021/09/11 09:33:51;;;;;;;1.50;0.90;;;23.40;93.20;;;;;;4970611;28;20565;-78
2021/09/11 09:36:20;;;;;;;1.57;0.90;;;23.70;91.00;;;;;;4955703;28;20569;-81
2021/09/11 09:38:47;;;;;;;1.50;0.90;;;24.00;89.80;;;;;;4966604;28;20498;-78
2021/09/11 09:41:14;;;;;;;1.50;0.90;;;24.10;89.30;;;;;;4962413;28;20592;-79
2021/09/11 09:43:43;;;;;;;1.53;0.90;;;24.10;88.60;;;;;;4975290;28;20496;-79
2021/09/11 09:46:12;;;;;;;1.50;0.90;;;24.20;89.30;;;;;;4962507;28;20506;-80
2021/09/11 09:48:41;;;;;;;1.50;0.90;;;24.30;88.90;;;;;;4982135;28;20501;-78
2021/09/11 09:51:09;;;;;;;1.50;0.90;;;24.40;87.70;;;;;;4964466;28;20544;-80
2021/09/11 09:53:39;;;;;;;1.50;0.90;;;24.40;88.50;;;;;;4982182;28;20497;-79
2021/09/11 09:56:07;;;;;;;1.70;1.37;;;24.50;88.90;;;;;;4961971;28;20470;-79
2021/09/11 09:58:35;;;;;;;1.50;0.90;;;24.60;88.30;;;;;;4982098;28;20568;-78
2021/09/11 10:01:02;;;;;;;1.50;0.90;;;24.70;89.00;;;;;;4957625;28;20572;-80
2021/09/11 10:03:29;;;;;;;1.50;0.90;;;24.90;88.30;;;;;;4967523;28;20819;-77
2021/09/11 10:06:00;;;;;;;1.53;0.90;;;25.10;87.40;;;;;;4959214;28;20466;-78
2021/09/11 10:08:32;;;;;;;1.50;0.90;;;25.20;86.70;;;;;;4979208;28;20477;-77
2021/09/11 10:11:10;;;;;;;1.57;0.90;;;25.30;87.50;;;;;;4956993;28;20558;-77
2021/09/11 10:13:38;;;;;;;1.53;0.90;;;25.40;87.40;;;;;;4965802;28;21064;-77
2021/09/11 10:16:08;;;;;;;1.50;0.90;;;25.40;86.70;;;;;;4958624;28;20810;-77
2021/09/11 10:18:43;;;;;;;1.50;0.87;;;25.40;88.10;;;;;;4975764;28;20500;-77
2021/09/11 10:21:35;;;;;;;1.50;0.90;;;25.30;86.90;;;;;;4954332;28;20468;-78
2021/09/11 10:24:34;;;;;;;1.50;0.90;;;25.30;87.30;;;;;;4969068;28;21296;-78
2021/09/11 10:27:10;;;;;;;1.50;0.90;;;25.10;86.70;;;;;;4957108;28;20492;-78
2021/09/11 10:29:56;;;;;;;1.50;0.90;;;24.90;88.40;;;;;;4967600;28;20488;-77
2021/09/11 10:32:37;;;;;;;1.50;0.80;;;24.70;87.90;;;;;;4954423;28;20485;-77
2021/09/11 10:35:07;;;;;;;1.50;0.90;;;24.60;88.60;;;;;;4966244;28;20492;-79
2021/09/11 10:37:40;;;;;;;1.50;0.90;;;24.60;89.60;;;;;;4957545;28;20780;-79
2021/09/11 10:40:37;;;;;;;1.50;0.83;;;24.80;88.70;;;;;;4972407;28;20561;-77
2021/09/11 10:43:31;;;;;;;1.50;0.90;;;25.00;88.30;;;;;;4960486;28;20941;-77
2021/09/11 10:46:09;;;;;;;1.53;0.80;;;25.20;88.30;;;;;;4961880;28;20512;-78
2021/09/11 10:48:43;;;;;;;1.50;0.90;;;25.40;87.80;;;;;;4966680;28;20571;-78
2021/09/11 10:51:30;;;;;;;1.50;0.90;;;25.40;86.80;;;;;;4950548;28;21041;-78
2021/09/11 10:54:12;;;;;;;1.50;0.90;;;25.40;86.60;;;;;;4976774;28;20639;-78
2021/09/11 10:56:51;;;;;;;1.50;0.90;;;25.50;86.10;;;;;;4956692;28;20576;-77
2021/09/11 10:59:33;;;;;;;1.50;0.90;;;25.40;87.40;;;;;;4967623;28;20508;-78
2021/09/11 11:02:06;;;;;;;1.50;0.90;;;25.20;87.40;;;;;;4969030;28;20843;-80
2021/09/11 11:04:35;;;;;;;1.50;0.90;;;25.10;87.40;;;;;;4966450;28;20970;-79
2021/09/11 11:07:03;;;;;;;1.50;0.90;;;24.90;87.90;;;;;;4964112;28;20563;-78
2021/09/11 11:09:35;;;;;;;1.50;0.90;;;24.80;88.10;;;;;;4972965;28;20525;-79
2021/09/11 11:12:03;;;;;;;1.50;0.90;;;24.70;88.50;;;;;;4961479;28;20499;-79
2021/09/11 11:14:32;;;;;;;1.60;1.30;;;24.50;89.50;;;;;;4970515;28;20500;-79
2021/09/11 11:17:00;;;;;;;1.50;0.90;;;24.50;89.40;;;;;;4967957;28;20512;-79
2021/09/11 11:19:29;;;;;;;1.50;0.90;;;24.50;90.00;;;;;;4971625;28;20485;-80
2021/09/11 11:22:02;;;;;;;1.50;0.87;;;24.50;88.90;;;;;;4966346;28;20489;-78
2021/09/11 11:24:30;;;;;;;1.50;0.90;;;24.70;89.80;;;;;;4974716;28;20573;-78
2021/09/11 11:27:00;;;;;;;1.50;0.90;;;25.00;88.10;;;;;;4964254;28;20485;-79
2021/09/11 11:29:28;;;;;;;1.50;0.90;;;25.20;88.20;;;;;;4967755;28;20802;-78
2021/09/11 11:31:57;;;;;;;1.50;0.80;;;25.50;87.70;;;;;;4962462;28;20540;-77
2021/09/11 11:34:27;;;;;;;1.50;0.90;;;25.80;87.20;;;;;;4973128;28;20549;-76
2021/09/11 11:36:56;;;;;;;1.50;0.83;;;25.90;86.50;;;;;;4959338;28;20675;-80
2021/09/11 11:39:26;;;;;;;1.50;0.90;;;26.10;85.70;;;;;;4967642;28;21232;-80
2021/09/11 11:41:58;;;;;;;1.50;0.90;;;26.30;84.40;;;;;;4962794;28;20520;-80
2021/09/11 11:44:25;;;;;;;1.50;0.90;;;26.30;84.40;;;;;;4969230;28;20462;-77
2021/09/11 11:46:57;;;;;;;1.50;0.90;;;26.20;84.40;;;;;;4964151;28;20484;-77
2021/09/11 11:49:24;;;;;;;1.50;0.80;;;26.10;84.80;;;;;;4969866;28;20584;-77
2021/09/11 11:51:53;;;;;;;1.50;0.90;;;26.00;85.10;;;;;;4961059;28;21059;-77
2021/09/11 11:54:21;;;;;;;1.50;0.90;;;25.90;85.40;;;;;;4972731;28;20474;-78
2021/09/11 11:56:49;;;;;;;1.50;0.90;;;25.90;85.50;;;;;;4964693;28;20591;-78
2021/09/11 11:59:23;;;;;;;1.50;0.90;;;25.90;85.10;;;;;;4971877;28;20496;-79
2021/09/11 12:01:50;;;;;;;1.50;0.80;;;25.80;85.10;;;;;;4963684;28;20891;-79
2021/09/11 12:04:20;;;;;;;1.50;0.90;;;25.60;84.70;;;;;;4973151;28;20474;-80
2021/09/11 12:06:49;;;;;;;1.50;0.90;;;25.50;85.60;;;;;;4957428;28;20949;-79
2021/09/11 12:09:17;;;;;;;1.50;0.80;;;25.50;86.10;;;;;;4973212;28;20943;-79
2021/09/11 12:11:46;;;;;;;1.50;0.80;;;25.50;85.80;;;;;;4954727;28;20478;-79
2021/09/11 12:14:15;;;;;;;1.50;0.90;;;25.60;88.20;;;;;;4965901;28;21044;-78
2021/09/11 12:16:43;;;;;;;1.50;0.80;;;26.00;85.40;;;;;;4965216;28;20765;-77
2021/09/11 12:19:11;;;;;;;1.50;0.90;;;26.20;84.80;;;;;;4977321;28;20549;-80
2021/09/11 12:21:40;;;;;;;1.50;0.90;;;26.50;84.30;;;;;;4954196;28;20496;-80
2021/09/11 12:24:19;;;;;;;1.53;0.87;;;26.70;83.80;;;;;;4966222;28;20472;-77
2021/09/11 12:26:46;;;;;;;1.53;0.87;;;26.90;82.70;;;;;;4958121;28;20511;-78
2021/09/11 12:29:16;;;;;;;1.50;0.80;;;26.90;82.80;;;;;;4968858;28;21048;-78
2021/09/11 12:31:53;;;;;;;1.50;0.90;;;26.90;82.90;;;;;;4967635;28;20499;-78
2021/09/11 12:34:21;;;;;;;1.50;0.80;;;27.00;82.60;;;;;;4974037;28;20481;-77
2021/09/11 12:36:50;;;;;;;1.50;0.80;;;27.10;82.80;;;;;;4958245;28;20516;-78
2021/09/11 12:39:29;;;;;;;1.50;0.87;;;27.10;80.80;;;;;;4972450;28;20524;-77
2021/09/11 12:41:58;;;;;;;1.50;0.90;;;27.20;82.30;;;;;;4953225;28;20489;-77
2021/09/11 12:44:30;;;;;;;1.50;0.90;;;27.10;81.70;;;;;;4963549;28;20465;-79
2021/09/11 12:46:59;;;;;;;1.50;0.87;;;27.00;81.10;;;;;;4966197;28;20488;-77
2021/09/11 12:49:27;;;;;;;1.50;0.80;;;26.90;81.50;;;;;;4975065;28;20490;-79
2021/09/11 12:51:58;;;;;;;1.50;0.90;;;26.80;81.80;;;;;;4954534;28;20491;-79
2021/09/11 12:54:25;;;;;;;1.50;0.90;;;26.90;80.60;;;;;;4966882;28;20562;-78